createdAt,value
2023-01-30T00:00:38.706Z,0
2023-01-30T00:01:38.680Z,0
2023-01-30T00:02:38.679Z,0
2023-01-30T00:03:38.667Z,0
2023-01-30T00:04:38.657Z,0
2023-01-30T00:05:38.634Z,0
2023-01-30T00:06:38.630Z,0
2023-01-30T00:07:38.616Z,0
2023-01-30T00:08:38.606Z,0
2023-01-30T00:09:38.598Z,0
2023-01-30T00:10:38.592Z,0
2023-01-30T00:11:38.579Z,0
2023-01-30T00:12:38.558Z,0
2023-01-30T00:13:38.551Z,0
2023-01-30T00:14:38.544Z,0
2023-01-30T00:15:38.539Z,0
2023-01-30T00:16:38.517Z,0
2023-01-30T00:17:38.512Z,0
2023-01-30T00:18:38.504Z,0
2023-01-30T00:19:38.487Z,0
2023-01-30T00:20:38.480Z,0
2023-01-30T00:21:38.474Z,0
2023-01-30T00:22:38.459Z,0
2023-01-30T00:23:38.450Z,0
2023-01-30T00:24:38.446Z,0
2023-01-30T00:25:38.442Z,0
2023-01-30T00:26:38.414Z,0
2023-01-30T00:27:38.401Z,0
2023-01-30T00:28:38.396Z,0
2023-01-30T00:29:38.390Z,0
2023-01-30T00:30:38.370Z,0
2023-01-30T00:31:38.366Z,0
2023-01-30T00:32:38.349Z,0
2023-01-30T00:33:38.364Z,0
2023-01-30T00:34:38.331Z,0
2023-01-30T00:35:38.333Z,0
2023-01-30T00:36:38.311Z,0
2023-01-30T00:37:38.298Z,0
2023-01-30T00:38:38.291Z,0
2023-01-30T00:39:38.280Z,0
2023-01-30T00:40:38.263Z,0
2023-01-30T00:41:38.253Z,0
2023-01-30T00:42:38.242Z,0
2023-01-30T00:43:38.242Z,0
2023-01-30T00:44:38.225Z,0
2023-01-30T00:45:38.212Z,0
2023-01-30T00:46:38.204Z,0
2023-01-30T00:47:38.198Z,0
2023-01-30T00:48:38.180Z,0
2023-01-30T00:49:38.174Z,0
2023-01-30T00:50:38.159Z,0
2023-01-30T00:51:38.153Z,0
2023-01-30T00:52:38.142Z,0
2023-01-30T00:53:38.128Z,0
2023-01-30T00:54:38.116Z,0
2023-01-30T00:55:38.119Z,0
2023-01-30T00:56:38.094Z,0
2023-01-30T00:57:38.095Z,0
2023-01-30T00:58:38.078Z,0
2023-01-30T00:59:38.067Z,0
2023-01-30T01:00:38.058Z,0
2023-01-30T01:01:38.049Z,0
2023-01-30T01:02:38.033Z,0
2023-01-30T01:03:38.033Z,0
2023-01-30T01:04:38.013Z,0
2023-01-30T01:05:38.001Z,0
2023-01-30T01:06:38.005Z,0
2023-01-30T01:07:37.990Z,0
2023-01-30T01:08:38.010Z,0
2023-01-30T01:09:37.983Z,0
2023-01-30T01:10:37.959Z,0
2023-01-30T01:11:37.997Z,0
2023-01-30T01:12:37.939Z,0
2023-01-30T01:13:37.919Z,0
2023-01-30T01:14:37.938Z,0
2023-01-30T01:15:37.915Z,0
2023-01-30T01:16:37.886Z,0
2023-01-30T01:17:37.877Z,0
2023-01-30T01:18:37.876Z,0
2023-01-30T01:19:37.855Z,0
2023-01-30T01:20:37.851Z,0
2023-01-30T01:21:37.839Z,0
2023-01-30T01:22:37.834Z,0
2023-01-30T01:23:37.814Z,0
2023-01-30T01:24:37.802Z,0
2023-01-30T01:25:37.792Z,0
2023-01-30T01:26:37.786Z,0
2023-01-30T01:27:37.771Z,0
2023-01-30T01:28:37.762Z,0
2023-01-30T01:29:37.761Z,0
2023-01-30T01:30:37.740Z,0
2023-01-30T01:31:37.735Z,0
2023-01-30T01:32:37.722Z,0
2023-01-30T01:33:37.704Z,0
2023-01-30T01:34:37.692Z,0
2023-01-30T01:35:37.705Z,0
2023-01-30T01:36:37.672Z,0
2023-01-30T01:37:37.663Z,0
2023-01-30T01:38:37.656Z,0
2023-01-30T01:39:37.644Z,0
2023-01-30T01:40:37.660Z,0
2023-01-30T01:41:37.639Z,0
2023-01-30T01:42:37.610Z,0
2023-01-30T01:43:37.610Z,0
2023-01-30T01:44:37.589Z,0
2023-01-30T01:45:37.575Z,0
2023-01-30T01:46:37.577Z,0
2023-01-30T01:47:37.564Z,0
2023-01-30T01:48:37.551Z,0
2023-01-30T01:49:37.540Z,0
2023-01-30T01:50:37.534Z,0
2023-01-30T01:51:37.560Z,0
2023-01-30T01:52:37.528Z,0
2023-01-30T01:53:37.502Z,0
2023-01-30T01:54:37.521Z,0
2023-01-30T01:55:37.480Z,0
2023-01-30T01:56:37.495Z,0
2023-01-30T01:57:37.453Z,0
2023-01-30T01:58:37.439Z,0
2023-01-30T01:59:37.430Z,0
2023-01-30T02:00:37.434Z,0
2023-01-30T02:01:37.411Z,0
2023-01-30T02:02:37.407Z,0
2023-01-30T02:03:37.410Z,0
2023-01-30T02:04:37.483Z,0
2023-01-30T02:05:37.381Z,0
2023-01-30T02:06:37.377Z,0
2023-01-30T02:07:37.345Z,0
2023-01-30T02:08:37.340Z,0
2023-01-30T02:09:37.331Z,0
2023-01-30T02:10:37.313Z,0
2023-01-30T02:11:37.324Z,0
2023-01-30T02:12:37.296Z,0
2023-01-30T02:13:37.304Z,0
2023-01-30T02:14:37.279Z,0
2023-01-30T02:15:37.261Z,0
2023-01-30T02:16:37.265Z,0
2023-01-30T02:17:37.250Z,0
2023-01-30T02:18:37.239Z,0
2023-01-30T02:19:37.218Z,0
2023-01-30T02:20:37.209Z,0
2023-01-30T02:21:37.200Z,0
2023-01-30T02:22:37.189Z,0
2023-01-30T02:23:37.180Z,0
2023-01-30T02:24:37.181Z,0
2023-01-30T02:25:37.165Z,0
2023-01-30T02:26:37.177Z,0
2023-01-30T02:27:37.136Z,0
2023-01-30T02:28:37.124Z,0
2023-01-30T02:29:37.115Z,0
2023-01-30T02:30:37.106Z,0
2023-01-30T02:31:37.094Z,0
2023-01-30T02:32:37.084Z,0
2023-01-30T02:33:37.097Z,0
2023-01-30T02:34:37.062Z,0
2023-01-30T02:35:37.054Z,0
2023-01-30T02:36:37.044Z,0
2023-01-30T02:37:37.031Z,0
2023-01-30T02:38:37.021Z,0
2023-01-30T02:39:37.009Z,0
2023-01-30T02:40:37.001Z,0
2023-01-30T02:41:36.990Z,0
2023-01-30T02:42:36.989Z,0
2023-01-30T02:43:36.973Z,0
2023-01-30T02:44:36.978Z,0
2023-01-30T02:45:36.951Z,0
2023-01-30T02:46:36.937Z,0
2023-01-30T02:47:36.930Z,0
2023-01-30T02:48:36.924Z,0
2023-01-30T02:49:36.912Z,0
2023-01-30T02:50:36.903Z,0
2023-01-30T02:51:36.913Z,0
2023-01-30T02:52:36.885Z,0
2023-01-30T02:53:36.874Z,0
2023-01-30T02:54:36.857Z,0
2023-01-30T02:55:36.856Z,0
2023-01-30T02:56:36.833Z,0
2023-01-30T02:57:36.826Z,0
2023-01-30T02:58:36.818Z,0
2023-01-30T02:59:36.809Z,0
2023-01-30T03:00:36.798Z,0
2023-01-30T03:01:36.783Z,0
2023-01-30T03:02:36.773Z,0
2023-01-30T03:03:36.761Z,0
2023-01-30T03:04:36.763Z,0
2023-01-30T03:05:36.748Z,0
2023-01-30T03:06:36.728Z,0
2023-01-30T03:07:36.730Z,0
2023-01-30T03:08:36.744Z,0
2023-01-30T03:09:36.708Z,0
2023-01-30T03:10:36.700Z,0
2023-01-30T03:11:36.699Z,0
2023-01-30T03:12:36.671Z,0
2023-01-30T03:13:36.665Z,0
2023-01-30T03:14:36.662Z,0
2023-01-30T03:15:36.640Z,0
2023-01-30T03:16:36.638Z,0
2023-01-30T03:17:36.616Z,0
2023-01-30T03:18:36.616Z,0
2023-01-30T03:19:36.602Z,0
2023-01-30T03:20:36.588Z,0
2023-01-30T03:21:36.584Z,0
2023-01-30T03:22:36.573Z,0
2023-01-30T03:23:36.555Z,0
2023-01-30T03:24:36.540Z,0
2023-01-30T03:25:36.539Z,0
2023-01-30T03:26:36.555Z,0
2023-01-30T03:27:36.525Z,0
2023-01-30T03:28:36.502Z,0
2023-01-30T03:29:36.492Z,0
2023-01-30T03:30:36.483Z,0
2023-01-30T03:31:36.474Z,0
2023-01-30T03:32:36.463Z,0
2023-01-30T03:33:36.460Z,0
2023-01-30T03:34:36.437Z,0
2023-01-30T03:35:36.434Z,0
2023-01-30T03:36:36.423Z,0
2023-01-30T03:37:36.410Z,0
2023-01-30T03:38:36.403Z,0
2023-01-30T03:39:36.405Z,0
2023-01-30T03:40:36.383Z,0
2023-01-30T03:41:36.369Z,0
2023-01-30T03:42:36.361Z,0
2023-01-30T03:43:36.368Z,0
2023-01-30T03:44:36.336Z,0
2023-01-30T03:45:36.334Z,0
2023-01-30T03:46:36.317Z,0
2023-01-30T03:47:36.309Z,0
2023-01-30T03:48:36.292Z,0
2023-01-30T03:49:36.291Z,0
2023-01-30T03:50:36.275Z,0
2023-01-30T03:51:36.274Z,0
2023-01-30T03:52:36.252Z,0
2023-01-30T03:53:36.247Z,0
2023-01-30T03:54:36.234Z,0
2023-01-30T03:55:36.225Z,0
2023-01-30T03:56:36.220Z,0
2023-01-30T03:57:36.206Z,0
2023-01-30T03:58:36.194Z,0
2023-01-30T03:59:36.201Z,0
2023-01-30T04:00:36.182Z,0
2023-01-30T04:01:36.185Z,0
2023-01-30T04:02:36.157Z,0
2023-01-30T04:03:36.138Z,0
2023-01-30T04:04:36.132Z,0
2023-01-30T04:05:36.140Z,0
2023-01-30T04:06:36.112Z,0
2023-01-30T04:07:36.144Z,0
2023-01-30T04:08:36.107Z,0
2023-01-30T04:09:36.159Z,0
2023-01-30T04:10:36.081Z,0
2023-01-30T04:11:36.151Z,0
2023-01-30T04:12:36.068Z,0
2023-01-30T04:13:36.066Z,0
2023-01-30T04:14:36.044Z,0
2023-01-30T04:15:36.063Z,0
2023-01-30T04:16:36.010Z,0
2023-01-30T04:17:36.000Z,0
2023-01-30T04:18:35.994Z,0
2023-01-30T04:19:35.998Z,0
2023-01-30T04:20:36.974Z,0
2023-01-30T04:21:35.949Z,0
2023-01-30T04:22:35.952Z,0
2023-01-30T04:23:35.959Z,0
2023-01-30T04:24:35.923Z,0
2023-01-30T04:25:35.915Z,0
2023-01-30T04:26:35.901Z,0
2023-01-30T04:27:35.888Z,0
2023-01-30T04:28:35.883Z,0
2023-01-30T04:29:35.887Z,0
2023-01-30T04:30:35.858Z,0
2023-01-30T04:31:35.846Z,0
2023-01-30T04:32:35.847Z,0
2023-01-30T04:33:35.831Z,0
2023-01-30T04:34:35.818Z,0
2023-01-30T04:35:35.826Z,0
2023-01-30T04:36:35.792Z,0
2023-01-30T04:37:35.798Z,0
2023-01-30T04:38:35.798Z,0
2023-01-30T04:39:35.795Z,0
2023-01-30T04:40:35.784Z,0
2023-01-30T04:41:35.740Z,0
2023-01-30T04:42:35.734Z,0
2023-01-30T04:43:35.721Z,0
2023-01-30T04:44:35.718Z,0
2023-01-30T04:45:35.715Z,0
2023-01-30T04:46:35.687Z,0
2023-01-30T04:47:35.686Z,0
2023-01-30T04:48:35.673Z,0
2023-01-30T04:49:35.687Z,0
2023-01-30T04:50:35.643Z,0
2023-01-30T04:51:35.639Z,0
2023-01-30T04:52:35.656Z,0
2023-01-30T04:53:35.628Z,0
2023-01-30T04:54:35.596Z,0
2023-01-30T04:55:35.592Z,0
2023-01-30T04:56:35.582Z,0
2023-01-30T04:57:35.588Z,0
2023-01-30T04:58:35.585Z,0
2023-01-30T04:59:35.551Z,0
2023-01-30T05:00:35.538Z,0
2023-01-30T05:01:35.527Z,0
2023-01-30T05:02:35.526Z,0
2023-01-30T05:03:35.519Z,0
2023-01-30T05:04:35.507Z,0
2023-01-30T05:05:35.493Z,0
2023-01-30T05:06:35.482Z,0
2023-01-30T05:07:35.467Z,0
2023-01-30T05:08:35.460Z,0
2023-01-30T05:09:35.446Z,0
2023-01-30T05:10:35.450Z,0
2023-01-30T05:11:35.425Z,0
2023-01-30T05:12:35.413Z,0
2023-01-30T05:13:35.406Z,0
2023-01-30T05:14:35.391Z,0
2023-01-30T05:15:35.379Z,0
2023-01-30T05:16:44.031Z,0
2023-01-30T05:17:35.357Z,0
2023-01-30T05:18:35.356Z,0
2023-01-30T05:19:35.362Z,0
2023-01-30T05:20:35.362Z,0
2023-01-30T05:21:35.323Z,0
2023-01-30T05:22:35.303Z,0
2023-01-30T05:23:35.302Z,0
2023-01-30T05:24:35.296Z,0
2023-01-30T05:25:35.315Z,0
2023-01-30T05:26:35.306Z,0
2023-01-30T05:27:35.253Z,0
2023-01-30T05:28:35.252Z,0
2023-01-30T05:29:35.233Z,0
2023-01-30T05:30:35.240Z,0
2023-01-30T05:31:35.215Z,0
2023-01-30T05:32:35.197Z,0
2023-01-30T05:33:35.219Z,0
2023-01-30T05:34:35.181Z,0
2023-01-30T05:35:35.173Z,0
2023-01-30T05:36:35.163Z,0
2023-01-30T05:37:35.149Z,0
2023-01-30T05:38:35.136Z,0
2023-01-30T05:39:35.135Z,0
2023-01-30T05:40:35.128Z,0
2023-01-30T05:41:35.121Z,0
2023-01-30T05:42:35.099Z,0
2023-01-30T05:43:35.082Z,0
2023-01-30T05:44:35.073Z,0
2023-01-30T05:45:35.076Z,0
2023-01-30T05:46:35.057Z,0
2023-01-30T05:47:35.051Z,0
2023-01-30T05:48:35.045Z,0
2023-01-30T05:49:35.015Z,0
2023-01-30T05:50:35.006Z,0
2023-01-30T05:51:35.026Z,0
2023-01-30T05:52:35.001Z,0
2023-01-30T05:53:34.971Z,0
2023-01-30T05:54:34.963Z,0
2023-01-30T05:55:34.961Z,0
2023-01-30T05:56:34.952Z,0
2023-01-30T05:57:34.934Z,0
2023-01-30T05:58:34.920Z,0
2023-01-30T05:59:34.918Z,0
2023-01-30T06:00:34.898Z,0
2023-01-30T06:01:34.899Z,0
2023-01-30T06:02:34.885Z,0
2023-01-30T06:03:34.873Z,0
2023-01-30T06:04:34.853Z,0
2023-01-30T06:05:34.860Z,0
2023-01-30T06:06:34.838Z,0
2023-01-30T06:07:34.826Z,0
2023-01-30T06:08:34.822Z,0
2023-01-30T06:09:34.811Z,0
2023-01-30T06:10:34.792Z,0
2023-01-30T06:11:34.775Z,0
2023-01-30T06:12:34.777Z,0
2023-01-30T06:13:34.784Z,0
2023-01-30T06:14:34.750Z,0
2023-01-30T06:15:34.738Z,0
2023-01-30T06:16:34.737Z,0
2023-01-30T06:17:34.721Z,0
2023-01-30T06:18:34.709Z,0
2023-01-30T06:19:34.703Z,0
2023-01-30T06:20:34.689Z,0
2023-01-30T06:21:34.674Z,0
2023-01-30T06:22:34.681Z,0
2023-01-30T06:23:34.662Z,0
2023-01-30T06:24:34.660Z,0
2023-01-30T06:25:34.624Z,0
2023-01-30T06:26:34.624Z,0
2023-01-30T06:27:34.621Z,0
2023-01-30T06:28:34.596Z,0
2023-01-30T06:29:34.622Z,0
2023-01-30T06:30:34.580Z,0
2023-01-30T06:31:34.575Z,0
2023-01-30T06:32:34.554Z,0
2023-01-30T06:33:34.550Z,0
2023-01-30T06:34:34.533Z,0
2023-01-30T06:35:34.538Z,0
2023-01-30T06:36:34.522Z,0
2023-01-30T06:37:34.492Z,0
2023-01-30T06:38:34.490Z,0
2023-01-30T06:39:34.531Z,0
2023-01-30T06:40:34.461Z,0
2023-01-30T06:41:34.454Z,0
2023-01-30T06:42:34.443Z,0
2023-01-30T06:43:34.425Z,0
2023-01-30T06:44:34.428Z,0
2023-01-30T06:45:34.412Z,0
2023-01-30T06:46:34.405Z,0
2023-01-30T06:47:34.390Z,0
2023-01-30T06:48:34.389Z,0
2023-01-30T06:49:34.368Z,0
2023-01-30T06:50:35.122Z,0
2023-01-30T06:51:34.348Z,0
2023-01-30T06:52:34.367Z,0
2023-01-30T06:53:34.386Z,0
2023-01-30T06:54:34.385Z,0
2023-01-30T06:55:34.337Z,0
2023-01-30T06:56:34.322Z,0
2023-01-30T06:57:34.294Z,0
2023-01-30T06:58:34.270Z,0
2023-01-30T06:59:34.259Z,0
2023-01-30T07:00:34.245Z,0
2023-01-30T07:01:34.236Z,0
2023-01-30T07:02:34.219Z,0
2023-01-30T07:03:34.222Z,0
2023-01-30T07:04:34.207Z,0
2023-01-30T07:05:34.190Z,0
2023-01-30T07:06:34.185Z,0
2023-01-30T07:07:34.164Z,0
2023-01-30T07:08:34.168Z,0
2023-01-30T07:09:34.159Z,0
2023-01-30T07:10:34.140Z,0
2023-01-30T07:11:34.260Z,0
2023-01-30T07:12:34.114Z,0
2023-01-30T07:13:34.102Z,0
2023-01-30T07:14:34.091Z,0
2023-01-30T07:15:34.087Z,0
2023-01-30T07:16:34.095Z,0
2023-01-30T07:17:34.108Z,0
2023-01-30T07:18:34.058Z,0
2023-01-30T07:19:34.037Z,0
2023-01-30T07:20:34.032Z,0
2023-01-30T07:21:34.016Z,0
2023-01-30T07:22:34.015Z,0
2023-01-30T07:23:34.000Z,0
2023-01-30T07:24:34.005Z,0
2023-01-30T07:25:33.997Z,0
2023-01-30T07:26:33.969Z,0
2023-01-30T07:27:33.956Z,0
2023-01-30T07:28:33.941Z,0
2023-01-30T07:29:33.933Z,0
2023-01-30T07:30:33.967Z,0
2023-01-30T07:31:33.954Z,0
2023-01-30T07:32:33.918Z,0
2023-01-30T07:33:33.912Z,0
2023-01-30T07:34:33.882Z,5.62
2023-01-30T07:35:33.891Z,5.62
2023-01-30T07:36:33.853Z,5.62
2023-01-30T07:37:33.839Z,5.62
2023-01-30T07:38:33.839Z,11.25
2023-01-30T07:39:33.824Z,11.25
2023-01-30T07:40:33.808Z,11.25
2023-01-30T07:41:33.811Z,11.25
2023-01-30T07:42:33.796Z,16.88
2023-01-30T07:43:33.783Z,16.88
2023-01-30T07:44:33.829Z,11.25
2023-01-30T07:45:33.759Z,11.25
2023-01-30T07:46:33.756Z,11.25
2023-01-30T07:47:33.739Z,11.25
2023-01-30T07:48:33.730Z,11.25
2023-01-30T07:49:33.737Z,11.25
2023-01-30T07:50:33.711Z,16.88
2023-01-30T07:51:33.693Z,16.88
2023-01-30T07:52:33.693Z,16.88
2023-01-30T07:53:33.679Z,16.88
2023-01-30T07:54:33.658Z,16.88
2023-01-30T07:55:33.655Z,16.88
2023-01-30T07:56:33.637Z,22.5
2023-01-30T07:57:33.632Z,22.5
2023-01-30T07:58:33.622Z,22.5
2023-01-30T07:59:33.600Z,22.5
2023-01-30T08:00:33.616Z,16.88
2023-01-30T08:01:33.627Z,22.5
2023-01-30T08:02:33.585Z,22.5
2023-01-30T08:03:33.601Z,22.5
2023-01-30T08:04:33.610Z,22.5
2023-01-30T08:05:33.576Z,28.12
2023-01-30T08:06:33.629Z,45
2023-01-30T08:07:33.546Z,45
2023-01-30T08:08:33.514Z,33.75
2023-01-30T08:09:33.515Z,28.12
2023-01-30T08:10:33.484Z,33.75
2023-01-30T08:11:33.483Z,28.12
2023-01-30T08:12:33.582Z,28.12
2023-01-30T08:13:33.452Z,33.75
2023-01-30T08:14:33.451Z,39.38
2023-01-30T08:15:33.431Z,33.75
2023-01-30T08:16:33.422Z,39.38
2023-01-30T08:17:33.418Z,39.38
2023-01-30T08:18:33.409Z,45
2023-01-30T08:19:33.409Z,39.38
2023-01-30T08:20:33.376Z,45
2023-01-30T08:21:33.377Z,50.62
2023-01-30T08:22:33.364Z,56.25
2023-01-30T08:23:33.376Z,50.62
2023-01-30T08:24:33.349Z,61.88
2023-01-30T08:25:33.327Z,67.5
2023-01-30T08:26:33.318Z,61.88
2023-01-30T08:27:33.309Z,50.62
2023-01-30T08:28:33.319Z,33.75
2023-01-30T08:29:33.289Z,28.12
2023-01-30T08:30:34.061Z,28.12
2023-01-30T08:31:33.274Z,28.12
2023-01-30T08:32:33.248Z,28.12
2023-01-30T08:33:33.249Z,28.12
2023-01-30T08:34:33.232Z,28.12
2023-01-30T08:35:33.237Z,28.12
2023-01-30T08:36:33.268Z,22.5
2023-01-30T08:37:33.270Z,22.5
2023-01-30T08:38:33.268Z,28.12
2023-01-30T08:39:33.203Z,33.75
2023-01-30T08:40:33.173Z,33.75
2023-01-30T08:41:33.259Z,39.38
2023-01-30T08:42:34.177Z,39.38
2023-01-30T08:43:33.183Z,39.38
2023-01-30T08:44:33.156Z,33.75
2023-01-30T08:45:33.141Z,39.38
2023-01-30T08:46:33.179Z,39.38
2023-01-30T08:47:33.103Z,33.75
2023-01-30T08:48:33.103Z,39.38
2023-01-30T08:49:33.099Z,33.75
2023-01-30T08:50:33.080Z,33.75
2023-01-30T08:51:33.069Z,39.38
2023-01-30T08:52:33.159Z,33.75
2023-01-30T08:53:33.055Z,28.12
2023-01-30T08:54:33.023Z,39.38
2023-01-30T08:55:33.013Z,28.12
2023-01-30T08:56:32.998Z,33.75
2023-01-30T08:57:32.989Z,39.38
2023-01-30T08:58:32.994Z,39.38
2023-01-30T08:59:32.994Z,33.75
2023-01-30T09:00:33.179Z,45
2023-01-30T09:01:33.031Z,56.25
2023-01-30T09:02:34.087Z,61.88
2023-01-30T09:03:32.957Z,50.62
2023-01-30T09:04:32.945Z,45
2023-01-30T09:05:32.909Z,39.38
2023-01-30T09:06:32.992Z,33.75
2023-01-30T09:07:33.100Z,28.12
2023-01-30T09:08:32.958Z,22.5
2023-01-30T09:09:33.910Z,22.5
2023-01-30T09:10:32.869Z,28.12
2023-01-30T09:11:33.867Z,28.12
2023-01-30T09:12:32.923Z,33.75
2023-01-30T09:13:33.830Z,33.75
2023-01-30T09:14:32.826Z,28.12
2023-01-30T09:15:32.830Z,22.5
2023-01-30T09:16:32.806Z,28.12
2023-01-30T09:17:32.828Z,33.75
2023-01-30T09:18:32.805Z,28.12
2023-01-30T09:19:33.127Z,22.5
2023-01-30T09:20:32.796Z,22.5
2023-01-30T09:21:32.754Z,22.5
2023-01-30T09:22:32.723Z,22.5
2023-01-30T09:23:32.713Z,22.5
2023-01-30T09:24:32.711Z,22.5
2023-01-30T09:25:32.708Z,22.5
2023-01-30T09:26:32.686Z,33.75
2023-01-30T09:27:32.757Z,39.38
2023-01-30T09:28:32.656Z,33.75
2023-01-30T09:29:32.651Z,28.12
2023-01-30T09:30:32.641Z,28.12
2023-01-30T09:31:32.623Z,33.75
2023-01-30T09:32:32.617Z,28.12
2023-01-30T09:33:32.603Z,28.12
2023-01-30T09:34:32.618Z,28.12
2023-01-30T09:35:32.605Z,33.75
2023-01-30T09:36:32.590Z,39.38
2023-01-30T09:37:32.562Z,39.38
2023-01-30T09:38:32.552Z,33.75
2023-01-30T09:39:32.539Z,33.75
2023-01-30T09:40:32.539Z,33.75
2023-01-30T09:41:32.517Z,33.75
2023-01-30T09:42:32.509Z,45
2023-01-30T09:43:32.508Z,45
2023-01-30T09:44:32.532Z,39.38
2023-01-30T09:45:32.493Z,45
2023-01-30T09:46:32.475Z,45
2023-01-30T09:47:32.461Z,45
2023-01-30T09:48:32.450Z,39.38
2023-01-30T09:49:32.434Z,39.38
2023-01-30T09:50:32.436Z,39.38
2023-01-30T09:51:32.414Z,33.75
2023-01-30T09:52:32.441Z,33.75
2023-01-30T09:53:32.395Z,33.75
2023-01-30T09:54:32.393Z,33.75
2023-01-30T09:55:32.374Z,39.38
2023-01-30T09:56:32.365Z,39.38
2023-01-30T09:57:32.363Z,39.38
2023-01-30T09:58:32.352Z,50.62
2023-01-30T09:59:32.338Z,56.25
2023-01-30T10:00:32.319Z,45
2023-01-30T10:01:32.311Z,33.75
2023-01-30T10:02:32.305Z,45
2023-01-30T10:03:32.289Z,33.75
2023-01-30T10:04:32.285Z,33.75
2023-01-30T10:05:32.323Z,39.38
2023-01-30T10:06:32.267Z,45
2023-01-30T10:07:32.247Z,45
2023-01-30T10:08:32.262Z,39.38
2023-01-30T10:09:32.268Z,39.38
2023-01-30T10:10:32.238Z,39.38
2023-01-30T10:11:32.212Z,45
2023-01-30T10:12:32.194Z,45
2023-01-30T10:13:32.194Z,39.38
2023-01-30T10:14:32.191Z,33.75
2023-01-30T10:15:32.162Z,39.38
2023-01-30T10:16:32.163Z,50.62
2023-01-30T10:17:32.142Z,56.25
2023-01-30T10:18:32.158Z,61.88
2023-01-30T10:19:32.172Z,50.62
2023-01-30T10:20:32.112Z,67.5
2023-01-30T10:21:32.136Z,73.12
2023-01-30T10:22:32.094Z,73.12
2023-01-30T10:23:32.080Z,67.5
2023-01-30T10:24:32.079Z,67.5
2023-01-30T10:25:32.076Z,67.5
2023-01-30T10:26:32.059Z,73.12
2023-01-30T10:27:32.044Z,84.38
2023-01-30T10:28:32.133Z,84.38
2023-01-30T10:29:32.027Z,95.62
2023-01-30T10:30:32.014Z,123.75
2023-01-30T10:31:32.004Z,84.38
2023-01-30T10:32:31.994Z,73.12
2023-01-30T10:33:31.993Z,73.12
2023-01-30T10:34:31.966Z,73.12
2023-01-30T10:35:31.953Z,61.88
2023-01-30T10:36:31.943Z,56.25
2023-01-30T10:37:31.953Z,50.62
2023-01-30T10:38:31.927Z,67.5
2023-01-30T10:39:31.915Z,73.12
2023-01-30T10:40:31.900Z,84.38
2023-01-30T10:41:31.888Z,101.25
2023-01-30T10:42:31.877Z,112.5
2023-01-30T10:43:31.882Z,78.75
2023-01-30T10:44:31.856Z,67.5
2023-01-30T10:45:31.854Z,61.88
2023-01-30T10:46:31.845Z,56.25
2023-01-30T10:47:31.832Z,67.5
2023-01-30T10:48:31.819Z,67.5
2023-01-30T10:49:31.814Z,67.5
2023-01-30T10:50:31.835Z,73.12
2023-01-30T10:51:31.787Z,73.12
2023-01-30T10:52:31.772Z,78.75
2023-01-30T10:53:31.799Z,61.88
2023-01-30T10:54:31.755Z,56.25
2023-01-30T10:55:31.743Z,56.25
2023-01-30T10:56:31.739Z,50.62
2023-01-30T10:57:31.720Z,33.75
2023-01-30T10:58:31.709Z,22.5
2023-01-30T10:59:31.704Z,22.5
2023-01-30T11:00:31.692Z,22.5
2023-01-30T11:01:31.676Z,22.5
2023-01-30T11:02:31.663Z,33.75
2023-01-30T11:03:31.659Z,45
2023-01-30T11:04:31.654Z,50.62
2023-01-30T11:05:31.638Z,39.38
2023-01-30T11:06:31.624Z,39.38
2023-01-30T11:07:31.614Z,33.75
2023-01-30T11:08:31.603Z,28.12
2023-01-30T11:09:31.590Z,16.88
2023-01-30T11:10:31.598Z,16.88
2023-01-30T11:11:31.574Z,16.88
2023-01-30T11:12:31.562Z,11.25
2023-01-30T11:13:31.553Z,16.88
2023-01-30T11:14:31.540Z,16.88
2023-01-30T11:15:31.531Z,16.88
2023-01-30T11:16:31.520Z,16.88
2023-01-30T11:17:31.511Z,28.12
2023-01-30T11:18:31.510Z,33.75
2023-01-30T11:19:31.487Z,45
2023-01-30T11:20:31.473Z,50.62
2023-01-30T11:21:31.467Z,61.88
2023-01-30T11:22:31.453Z,73.12
2023-01-30T11:23:31.450Z,61.88
2023-01-30T11:24:31.463Z,78.75
2023-01-30T11:25:31.422Z,73.12
2023-01-30T11:26:31.485Z,73.12
2023-01-30T11:27:31.434Z,90
2023-01-30T11:28:31.395Z,112.5
2023-01-30T11:29:32.047Z,129.38
2023-01-30T11:30:31.379Z,140.62
2023-01-30T11:31:31.359Z,180
2023-01-30T11:32:31.349Z,140.62
2023-01-30T11:33:31.347Z,90
2023-01-30T11:34:31.333Z,73.12
2023-01-30T11:35:31.319Z,67.5
2023-01-30T11:36:31.304Z,56.25
2023-01-30T11:37:31.295Z,67.5
2023-01-30T11:38:31.281Z,73.12
2023-01-30T11:39:31.274Z,90
2023-01-30T11:40:31.292Z,90
2023-01-30T11:41:31.249Z,112.5
2023-01-30T11:42:31.260Z,157.5
2023-01-30T11:43:31.249Z,101.25
2023-01-30T11:44:31.238Z,78.75
2023-01-30T11:45:31.223Z,84.38
2023-01-30T11:46:31.206Z,90
2023-01-30T11:47:31.191Z,67.5
2023-01-30T11:48:31.182Z,67.5
2023-01-30T11:49:31.173Z,61.88
2023-01-30T11:50:31.167Z,50.62
2023-01-30T11:51:31.148Z,39.38
2023-01-30T11:52:31.169Z,39.38
2023-01-30T11:53:31.126Z,39.38
2023-01-30T11:54:31.119Z,45
2023-01-30T11:55:31.114Z,33.75
2023-01-30T11:56:31.101Z,33.75
2023-01-30T11:57:31.083Z,33.75
2023-01-30T11:58:31.074Z,33.75
2023-01-30T11:59:31.063Z,33.75
2023-01-30T12:00:31.060Z,50.62
2023-01-30T12:01:31.051Z,50.62
2023-01-30T12:02:31.074Z,56.25
2023-01-30T12:03:31.058Z,56.25
2023-01-30T12:04:31.007Z,45
2023-01-30T12:05:31.013Z,28.12
2023-01-30T12:06:30.985Z,28.12
2023-01-30T12:07:31.005Z,28.12
2023-01-30T12:08:30.979Z,28.12
2023-01-30T12:09:30.963Z,33.75
2023-01-30T12:10:31.184Z,39.38
2023-01-30T12:11:31.049Z,45
2023-01-30T12:12:30.920Z,45
2023-01-30T12:13:30.947Z,33.75
2023-01-30T12:14:30.910Z,28.12
2023-01-30T12:15:30.902Z,22.5
2023-01-30T12:16:30.890Z,22.5
2023-01-30T12:17:30.923Z,28.12
2023-01-30T12:18:30.859Z,33.75
2023-01-30T12:19:31.305Z,33.75
2023-01-30T12:20:30.860Z,39.38
2023-01-30T12:21:30.877Z,50.62
2023-01-30T12:22:30.836Z,39.38
2023-01-30T12:23:30.821Z,39.38
2023-01-30T12:24:30.986Z,39.38
2023-01-30T12:25:30.789Z,50.62
2023-01-30T12:26:30.779Z,56.25
2023-01-30T12:27:30.850Z,78.75
2023-01-30T12:28:30.822Z,84.38
2023-01-30T12:29:30.884Z,67.5
2023-01-30T12:30:31.758Z,61.88
2023-01-30T12:31:30.751Z,33.75
2023-01-30T12:32:30.731Z,33.75
2023-01-30T12:33:30.764Z,45
2023-01-30T12:34:30.725Z,56.25
2023-01-30T12:35:30.706Z,33.75
2023-01-30T12:36:30.732Z,22.5
2023-01-30T12:37:30.675Z,28.12
2023-01-30T12:38:30.657Z,28.12
2023-01-30T12:39:30.660Z,28.12
2023-01-30T12:40:30.679Z,39.38
2023-01-30T12:41:30.619Z,33.75
2023-01-30T12:42:30.615Z,28.12
2023-01-30T12:43:30.601Z,22.5
2023-01-30T12:44:30.595Z,16.88
2023-01-30T12:45:30.605Z,16.88
2023-01-30T12:46:30.600Z,11.25
2023-01-30T12:47:30.554Z,11.25
2023-01-30T12:48:30.571Z,11.25
2023-01-30T12:49:30.539Z,16.88
2023-01-30T12:50:30.560Z,16.88
2023-01-30T12:51:30.524Z,16.88
2023-01-30T12:52:30.533Z,28.12
2023-01-30T12:53:30.492Z,33.75
2023-01-30T12:54:30.531Z,28.12
2023-01-30T12:55:30.482Z,16.88
2023-01-30T12:56:30.465Z,16.88
2023-01-30T12:57:30.496Z,16.88
2023-01-30T12:58:30.445Z,28.12
2023-01-30T12:59:30.427Z,45
2023-01-30T13:00:30.557Z,56.25
2023-01-30T13:01:30.527Z,73.12
2023-01-30T13:02:30.410Z,84.38
2023-01-30T13:03:30.404Z,90
2023-01-30T13:04:30.374Z,78.75
2023-01-30T13:05:30.396Z,61.88
2023-01-30T13:06:30.385Z,50.62
2023-01-30T13:07:30.368Z,50.62
2023-01-30T13:08:30.340Z,56.25
2023-01-30T13:09:30.354Z,95.62
2023-01-30T13:10:30.330Z,106.88
2023-01-30T13:11:30.327Z,106.88
2023-01-30T13:12:30.290Z,106.88
2023-01-30T13:13:30.281Z,106.88
2023-01-30T13:14:30.297Z,106.88
2023-01-30T13:15:30.269Z,106.88
2023-01-30T13:16:30.259Z,106.88
2023-01-30T13:17:30.299Z,106.88
2023-01-30T13:18:30.228Z,106.88
2023-01-30T13:19:30.284Z,101.25
2023-01-30T13:20:30.233Z,101.25
2023-01-30T13:21:30.226Z,106.88
2023-01-30T13:22:30.185Z,129.38
2023-01-30T13:23:30.178Z,151.88
2023-01-30T13:24:30.172Z,157.5
2023-01-30T13:25:30.158Z,174.38
2023-01-30T13:26:30.167Z,185.62
2023-01-30T13:27:30.138Z,168.75
2023-01-30T13:28:30.127Z,146.25
2023-01-30T13:29:30.115Z,90
2023-01-30T13:30:30.109Z,67.5
2023-01-30T13:31:30.104Z,61.88
2023-01-30T13:32:30.081Z,56.25
2023-01-30T13:33:30.098Z,39.38
2023-01-30T13:34:30.059Z,33.75
2023-01-30T13:35:30.043Z,28.12
2023-01-30T13:36:30.034Z,28.12
2023-01-30T13:37:30.022Z,22.5
2023-01-30T13:38:30.031Z,22.5
2023-01-30T13:39:30.032Z,16.88
2023-01-30T13:40:29.987Z,22.5
2023-01-30T13:41:29.981Z,22.5
2023-01-30T13:42:29.970Z,16.88
2023-01-30T13:43:29.974Z,22.5
2023-01-30T13:44:29.953Z,22.5
2023-01-30T13:45:29.943Z,28.12
2023-01-30T13:46:29.930Z,22.5
2023-01-30T13:47:29.921Z,28.12
2023-01-30T13:48:29.908Z,33.75
2023-01-30T13:49:29.897Z,33.75
2023-01-30T13:50:29.886Z,39.38
2023-01-30T13:51:29.876Z,56.25
2023-01-30T13:52:29.875Z,90
2023-01-30T13:53:29.856Z,112.5
2023-01-30T13:54:29.843Z,123.75
2023-01-30T13:55:29.842Z,112.5